Darstellungsparameter: Aktuell verwendete Einstellungen:
Skalierung der Graphiken ... ?
xyx+y,   Skalierungsfaktor:      Skalierung: Modus: x, Faktor: 1
Darstellungszeitraum ... ?
Vom - - bis: - -   Zeitraum: 19.05.2010 - 25.05.2010
Min/Max/Avg-Anzeige ... ?
Zeige MMA aktuell
Zeige MMA Monat
Zeige MMA alles
Zeige --A aktuell
Zeige --A Monat
Zeige --A alles
Keine MMA-Anzeige
MMA:
Average (ber die Originaldaten)
MMA-Basis: 19.05.2010 - 25.05.2010
Quicknavigation für Darstellung... ?
Tage:      1T, 2T, 3T, 5T -1T -2T -3T -5T +1T +2T +3T +5T
Wochen: 1W, 2W, 3W -1W -2W -3W +1W +2W +3W
Monate: 1M, 3M, 6M -1M -3M -6M +1M +3M +6M
Jahre:    1J, 3J, 5J, 10J -1J -3J -5J -10J +1J +3J +5J +10J
Nutze für die Darstellung ... ?
Originaldaten oder Mittelwerte auf ...
Stundenbasis Tagesbasis Wochenbasis
Monatsbasis Jahresbasis      Datenbasis: Original-Daten
Darstellen als:
Statistik (Auto) Statistik J:M      Darstellung:
Zur Graphik,    zurück zur Übersicht aller Sensoren.
 
Tabellarische Datenbersicht: ?
 
Sensor: Nr:Datum:Temp:Abs-Feuchte:Windchill:Wind:
Aussen-T/F 1 19-05-2010 00:11:03 9.4 C 5.79 g/m*3 9.4 C 0 km/h
2 19-05-2010 00:23:03 9.4 C 5.79 g/m*3 9.4 C 0 km/h
3 19-05-2010 00:35:03 9.3 C 5.75 g/m*3 9.3 C 0 km/h
4 19-05-2010 00:47:03 9.3 C 5.75 g/m*3 9.3 C 0 km/h
5 19-05-2010 00:59:03 9.2 C 5.71 g/m*3 9.2 C 0 km/h
6 19-05-2010 01:11:03 9.2 C 5.54 g/m*3 9.2 C 0 km/h
7 19-05-2010 01:23:03 9.3 C 5.39 g/m*3 9.3 C 0 km/h
8 19-05-2010 01:35:03 9.3 C 5.3 g/m*3 9.3 C 0 km/h
9 19-05-2010 01:47:03 9.3 C 5.3 g/m*3 9.3 C 0 km/h
10 19-05-2010 01:59:03 9.3 C 5.3 g/m*3 9.3 C 0 km/h
11 19-05-2010 02:11:03 9.2 C 5.27 g/m*3 9.2 C 0 km/h
12 19-05-2010 02:23:03 9.1 C 5.32 g/m*3 9.1 C 0 km/h
13 19-05-2010 02:35:03 9.2 C 5.36 g/m*3 9.2 C 0 km/h
14 19-05-2010 02:47:03 9 C 5.29 g/m*3 9 C 0 km/h
15 19-05-2010 02:59:03 8.8 C 5.4 g/m*3 8.8 C 0 km/h
16 19-05-2010 03:11:03 8.8 C 5.4 g/m*3 8.8 C 0 km/h
17 19-05-2010 03:23:03 8.8 C 5.31 g/m*3 8.8 C 0 km/h
18 19-05-2010 03:35:03 8.7 C 5.36 g/m*3 8.7 C 0 km/h
19 19-05-2010 03:47:03 8.6 C 5.33 g/m*3 8.6 C 0 km/h
20 19-05-2010 03:59:03 8.5 C 5.38 g/m*3 8.5 C 0 km/h
21 19-05-2010 04:11:04 8.4 C 5.43 g/m*3 8.4 C 0 km/h
22 19-05-2010 04:23:04 8.2 C 5.44 g/m*3 8.2 C 0 km/h
23 19-05-2010 04:35:04 8.1 C 5.49 g/m*3 8.1 C 0 km/h
24 19-05-2010 04:47:04 8.1 C 5.66 g/m*3 8.1 C 0 km/h
25 19-05-2010 04:59:04 8 C 5.7 g/m*3 8 C 0 km/h
Sensor: Nr:Datum:Temp:Abs-Feuchte:Windchill:Wind:
Aussen-T/F 26 19-05-2010 05:11:04 8 C 5.7 g/m*3 8 C 0 km/h
27 19-05-2010 05:23:04 7.9 C 5.83 g/m*3 7.9 C 0 km/h
28 19-05-2010 05:35:04 7.9 C 5.91 g/m*3 7.9 C 0 km/h
29 19-05-2010 05:47:04 7.9 C 5.91 g/m*3 7.9 C 0 km/h
30 19-05-2010 05:59:04 7.9 C 5.91 g/m*3 7.9 C 0 km/h
31 19-05-2010 06:11:04 7.8 C 5.96 g/m*3 7.8 C 0 km/h
32 19-05-2010 06:23:04 8 C 5.95 g/m*3 8 C 0 km/h
33 19-05-2010 06:35:04 8.1 C 5.91 g/m*3 8.1 C 0 km/h
34 19-05-2010 06:47:04 8.1 C 5.91 g/m*3 8.1 C 0 km/h
35 19-05-2010 06:59:04 8.2 C 5.95 g/m*3 8.2 C 0 km/h
36 19-05-2010 07:11:02 8.4 C 6.02 g/m*3 8.4 C 0 km/h
37 19-05-2010 07:23:02 8.5 C 5.89 g/m*3 8.5 C 0 km/h
38 19-05-2010 07:35:02 8.6 C 5.84 g/m*3 8.6 C 0 km/h
39 19-05-2010 07:47:02 8.7 C 5.88 g/m*3 8.7 C 0 km/h
40 19-05-2010 07:59:02 9.1 C 5.86 g/m*3 9.1 C 0 km/h
41 19-05-2010 08:11:02 9.1 C 5.68 g/m*3 9.1 C 0 km/h
42 19-05-2010 08:23:02 9.3 C 5.66 g/m*3 9.3 C 0 km/h
43 19-05-2010 08:35:02 9 C 5.55 g/m*3 9 C 0 km/h
44 19-05-2010 08:47:02 9.1 C 5.59 g/m*3 9.1 C 0 km/h
45 19-05-2010 08:59:02 9.2 C 5.63 g/m*3 9.2 C 0 km/h
46 19-05-2010 09:11:01 8.9 C 5.69 g/m*3 8.9 C 0 km/h
47 19-05-2010 09:23:01 9.1 C 5.77 g/m*3 9.1 C 0 km/h
48 19-05-2010 09:35:01 9.2 C 5.71 g/m*3 9.2 C 0 km/h
49 19-05-2010 09:47:02 9.2 C 5.71 g/m*3 9.2 C 0 km/h
50 19-05-2010 09:59:02 9.5 C 5.73 g/m*3 9.5 C 0 km/h
Sensor: Nr:Datum:Temp:Abs-Feuchte:Windchill:Wind:
Aussen-T/F 51 19-05-2010 10:11:02 9.6 C 5.77 g/m*3 9.6 C 0 km/h
52 19-05-2010 10:23:02 9.6 C 5.68 g/m*3 9.6 C 0 km/h
53 19-05-2010 10:35:01 9.8 C 5.75 g/m*3 9.8 C 0 km/h
54 19-05-2010 10:47:02 9.5 C 5.64 g/m*3 9.5 C 0 km/h
55 19-05-2010 10:59:02 9.6 C 5.77 g/m*3 9.6 C 0 km/h
56 19-05-2010 11:11:01 9.7 C 5.81 g/m*3 9.7 C 0 km/h
57 19-05-2010 11:23:02 10.1 C 5.77 g/m*3 10.1 C 0 km/h
58 19-05-2010 11:35:02 10.3 C 5.84 g/m*3 10.3 C 0 km/h
59 19-05-2010 11:47:02 10.7 C 5.89 g/m*3 10.7 C 0 km/h
60 19-05-2010 11:59:02 10.3 C 5.75 g/m*3 10.3 C 0 km/h
61 19-05-2010 12:11:02 10.7 C 5.99 g/m*3 10.7 C 0 km/h
62 19-05-2010 12:23:02 10.9 C 5.97 g/m*3 10.9 C 0 km/h
63 19-05-2010 12:35:02 10.7 C 5.8 g/m*3 10.7 C 0 km/h
64 19-05-2010 12:47:02 11.1 C 5.64 g/m*3 11.1 C 0 km/h
65 19-05-2010 12:59:02 11.7 C 5.75 g/m*3 11.7 C 0 km/h
66 19-05-2010 13:11:02 11.9 C 5.61 g/m*3 11.9 C 0 km/h
67 19-05-2010 13:23:01 11.7 C 5.33 g/m*3 11.7 C 0 km/h
68 19-05-2010 13:35:02 11.5 C 5.99 g/m*3 11.5 C 0 km/h
69 19-05-2010 13:47:02 11.3 C 6.32 g/m*3 11.3 C 0 km/h
70 19-05-2010 13:59:02 11.3 C 6.32 g/m*3 11.3 C 0 km/h
71 19-05-2010 14:11:02 11.4 C 6.47 g/m*3 11.4 C 0 km/h
72 19-05-2010 14:23:02 11.2 C 6.39 g/m*3 11.2 C 0 km/h
73 19-05-2010 14:35:02 10.9 C 6.76 g/m*3 10.9 C 0 km/h
74 19-05-2010 14:47:02 11.9 C 7.31 g/m*3 11.9 C 0 km/h
75 19-05-2010 14:59:02 11.9 C 6.99 g/m*3 11.9 C 0 km/h
Sensor: Nr:Datum:Temp:Abs-Feuchte:Windchill:Wind:
Aussen-T/F 76 19-05-2010 15:11:02 11.8 C 7.37 g/m*3 11.8 C 0 km/h
77 19-05-2010 15:23:02 11.5 C 7.64 g/m*3 11.5 C 0 km/h
78 19-05-2010 15:35:02 11.4 C 7.9 g/m*3 11.4 C 0 km/h
79 19-05-2010 15:47:02 11.1 C 7.86 g/m*3 11.1 C 0 km/h
80 19-05-2010 15:59:02 11.2 C 8.01 g/m*3 11.2 C 0 km/h
81 19-05-2010 16:11:02 11 C 8.01 g/m*3 11 C 0 km/h
82 19-05-2010 16:23:02 10.8 C 8.01 g/m*3 10.8 C 0 km/h
83 19-05-2010 16:35:02 10.7 C 8.05 g/m*3 10.7 C 0 km/h
84 19-05-2010 16:47:02 10.8 C 8.2 g/m*3 10.8 C 0 km/h
85 19-05-2010 16:59:02 10.6 C 8.1 g/m*3 10.6 C 0 km/h
86 19-05-2010 17:11:02 10.7 C 8.25 g/m*3 10.7 C 0 km/h
87 19-05-2010 17:23:03 10.6 C 8.3 g/m*3 10.6 C 0 km/h
88 19-05-2010 17:35:02 10.7 C 8.35 g/m*3 10.7 C 0 km/h
89 19-05-2010 17:47:02 10.7 C 8.35 g/m*3 10.7 C 0 km/h
90 19-05-2010 17:59:02 10.7 C 8.35 g/m*3 10.7 C 0 km/h
91 19-05-2010 18:11:02 11.1 C 8.46 g/m*3 11.1 C 0 km/h
92 19-05-2010 18:23:03 11.1 C 8.36 g/m*3 11.1 C 0 km/h
93 19-05-2010 18:35:02 11.1 C 8.16 g/m*3 11.1 C 0 km/h
94 19-05-2010 18:47:02 11.2 C 8.11 g/m*3 11.2 C 0 km/h
95 19-05-2010 18:59:02 11.2 C 8.01 g/m*3 11.2 C 0 km/h
96 19-05-2010 19:11:02 11.3 C 7.96 g/m*3 11.3 C 0 km/h
97 19-05-2010 19:23:02 11.4 C 8.01 g/m*3 11.4 C 0 km/h
98 19-05-2010 19:35:02 11.5 C 8.06 g/m*3 11.5 C 0 km/h
99 19-05-2010 19:47:02 11.6 C 8.11 g/m*3 11.6 C 0 km/h
100 19-05-2010 19:59:02 11.6 C 8 g/m*3 11.6 C 0 km/h
Sensor: Nr:Datum:Temp:Abs-Feuchte:Windchill:Wind:
Aussen-T/F 101 19-05-2010 20:11:02 11.6 C 8 g/m*3 11.6 C 0 km/h
102 19-05-2010 20:23:02 11.7 C 7.95 g/m*3 11.7 C 0 km/h
103 19-05-2010 20:35:01 11.7 C 7.84 g/m*3 11.7 C 0 km/h
104 19-05-2010 20:47:02 11.8 C 7.68 g/m*3 11.8 C 0 km/h
105 19-05-2010 20:59:02 12 C 7.14 g/m*3 12 C 0 km/h
106 19-05-2010 21:11:01 12.6 C 6.2 g/m*3 12.6 C 0 km/h
107 19-05-2010 21:23:02 12.8 C 6.16 g/m*3 12.8 C 0 km/h
108 19-05-2010 21:35:02 13.2 C 5.51 g/m*3 13.2 C 0 km/h
109 19-05-2010 21:47:02 13 C 5.78 g/m*3 13 C 0 km/h
110 19-05-2010 21:59:03 13.1 C 5.48 g/m*3 13.1 C 0 km/h
111 19-05-2010 22:11:02 13.2 C 5.51 g/m*3 13.2 C 0 km/h
112 19-05-2010 22:23:02 13.1 C 5.71 g/m*3 13.1 C 0 km/h
113 19-05-2010 22:35:03 13.2 C 5.63 g/m*3 13.2 C 0 km/h
114 19-05-2010 22:47:02 13 C 5.67 g/m*3 13 C 0 km/h
115 19-05-2010 22:59:03 12.8 C 5.94 g/m*3 12.8 C 0 km/h
116 19-05-2010 23:11:01 12.8 C 5.94 g/m*3 12.8 C 0 km/h
117 19-05-2010 23:23:02 12.8 C 5.82 g/m*3 12.8 C 0 km/h
118 19-05-2010 23:35:02 12.8 C 5.94 g/m*3 12.8 C 0 km/h
119 19-05-2010 23:47:02 12.9 C 5.75 g/m*3 12.9 C 0 km/h
120 19-05-2010 23:59:02 12.7 C 5.68 g/m*3 12.7 C 0 km/h
121 20-05-2010 00:11:02 12.9 C 5.52 g/m*3 12.9 C 0 km/h
122 20-05-2010 00:23:03 12.8 C 5.49 g/m*3 12.8 C 0 km/h
123 20-05-2010 00:35:02 12.8 C 5.26 g/m*3 12.8 C 0 km/h
124 20-05-2010 00:47:02 13 C 4.99 g/m*3 13 C 0 km/h
125 20-05-2010 00:59:02 13 C 4.76 g/m*3 13 C 0 km/h
Sensor: Nr:Datum:Temp:Abs-Feuchte:Windchill:Wind:
Aussen-T/F 126 20-05-2010 01:11:02 12.8 C 4.93 g/m*3 12.8 C 0 km/h
127 20-05-2010 01:23:03 12.6 C 5.2 g/m*3 12.6 C 0 km/h
128 20-05-2010 01:35:02 12.5 C 5.61 g/m*3 12.5 C 0 km/h
129 20-05-2010 01:47:03 12.4 C 5.68 g/m*3 12.4 C 0 km/h
130 20-05-2010 01:59:03 12.2 C 5.61 g/m*3 12.2 C 0 km/h
131 20-05-2010 02:11:02 12.1 C 5.47 g/m*3 12.1 C 0 km/h
132 20-05-2010 02:23:03 12 C 5.65 g/m*3 12 C 0 km/h
133 20-05-2010 02:35:02 11.8 C 5.68 g/m*3 11.8 C 0 km/h
134 20-05-2010 02:48:04 11.7 C 5.65 g/m*3 11.7 C 0 km/h
135 20-05-2010 03:00:04 11.5 C 5.68 g/m*3 11.5 C 0 km/h
136 20-05-2010 03:12:03 11.7 C 5.54 g/m*3 11.7 C 0 km/h
137 20-05-2010 03:24:03 11.5 C 5.37 g/m*3 11.5 C 0 km/h
138 20-05-2010 03:36:01 11.4 C 5.44 g/m*3 11.4 C 0 km/h
139 20-05-2010 03:48:01 11.5 C 5.47 g/m*3 11.5 C 0 km/h
140 20-05-2010 04:00:01 11.2 C 5.47 g/m*3 11.2 C 0 km/h
141 20-05-2010 04:12:02 11.3 C 5.3 g/m*3 11.3 C 0 km/h
142 20-05-2010 04:24:01 11.2 C 5.27 g/m*3 11.2 C 0 km/h
143 20-05-2010 04:36:02 11.1 C 5.24 g/m*3 11.1 C 0 km/h
144 20-05-2010 04:48:01 11 C 5.2 g/m*3 11 C 0 km/h
145 20-05-2010 05:00:01 11.1 C 5.24 g/m*3 11.1 C 0 km/h
146 20-05-2010 05:12:02 11.1 C 5.14 g/m*3 11.1 C 0 km/h
147 20-05-2010 05:24:02 11 C 5.31 g/m*3 11 C 0 km/h
148 20-05-2010 05:36:02 11 C 5.2 g/m*3 11 C 0 km/h
149 20-05-2010 05:48:01 10.9 C 5.27 g/m*3 10.9 C 0 km/h
150 20-05-2010 06:00:01 10.9 C 5.27 g/m*3 10.9 C 0 km/h
Sensor: Nr:Datum:Temp:Abs-Feuchte:Windchill:Wind:
Aussen-T/F 151 20-05-2010 06:12:02 10.9 C 5.37 g/m*3 10.9 C 0 km/h
152 20-05-2010 06:24:02 11 C 5 g/m*3 11 C 0 km/h
153 20-05-2010 06:36:02 11.1 C 5.04 g/m*3 11.1 C 0 km/h
154 20-05-2010 06:48:02 11.2 C 5.27 g/m*3 11.2 C 0 km/h
155 20-05-2010 07:00:02 11.2 C 5.17 g/m*3 11.2 C 0 km/h
156 20-05-2010 07:12:02 11.2 C 5.17 g/m*3 11.2 C 0 km/h
157 20-05-2010 07:24:02 11.2 C 5.17 g/m*3 11.2 C 0 km/h
158 20-05-2010 07:36:01 11.4 C 5.44 g/m*3 11.4 C 0 km/h
159 20-05-2010 07:48:02 11.3 C 5.3 g/m*3 11.3 C 0 km/h
160 20-05-2010 08:00:02 11.2 C 5.27 g/m*3 11.2 C 0 km/h
161 20-05-2010 08:12:01 11 C 5.2 g/m*3 11 C 0 km/h
162 20-05-2010 08:24:02 11 C 5.31 g/m*3 11 C 0 km/h
163 20-05-2010 08:36:01 11.1 C 5.44 g/m*3 11.1 C 0 km/h
164 20-05-2010 08:48:02 11.4 C 5.54 g/m*3 11.4 C 0 km/h
165 20-05-2010 09:00:02 11.8 C 5.47 g/m*3 11.8 C 0 km/h
166 20-05-2010 09:12:02 11.8 C 5.37 g/m*3 11.8 C 0 km/h
167 20-05-2010 09:24:02 11.8 C 5.47 g/m*3 11.8 C 0 km/h
168 20-05-2010 09:36:01 11.7 C 5.44 g/m*3 11.7 C 0 km/h
169 20-05-2010 09:48:02 12 C 5.33 g/m*3 12 C 0 km/h
170 20-05-2010 10:00:02 12.1 C 5.36 g/m*3 12.1 C 0 km/h
171 20-05-2010 10:12:01 12.1 C 5.36 g/m*3 12.1 C 0 km/h
172 20-05-2010 10:24:02 12.4 C 5.46 g/m*3 12.4 C 0 km/h
173 20-05-2010 10:36:01 12.5 C 5.39 g/m*3 12.5 C 0 km/h
174 20-05-2010 10:48:02 12.4 C 5.35 g/m*3 12.4 C 0 km/h
175 20-05-2010 11:00:02 12.5 C 5.28 g/m*3 12.5 C 0 km/h
Sensor: Nr:Datum:Temp:Abs-Feuchte:Windchill:Wind:
Aussen-T/F 176 20-05-2010 11:12:02 12.7 C 5.23 g/m*3 12.7 C 0 km/h
177 20-05-2010 11:24:02 13.1 C 5.14 g/m*3 13.1 C 0 km/h
178 20-05-2010 11:36:02 13.4 C 5 g/m*3 13.4 C 0 km/h
179 20-05-2010 11:48:02 13.8 C 5.12 g/m*3 13.8 C 0 km/h
180 20-05-2010 12:00:02 13.8 C 5 g/m*3 13.8 C 0 km/h
181 20-05-2010 12:12:01 13.8 C 4.89 g/m*3 13.8 C 0 km/h
182 20-05-2010 12:24:01 14.4 C 4.82 g/m*3 14.4 C 0 km/h
183 20-05-2010 12:36:02 14.2 C 4.88 g/m*3 14.2 C 0 km/h
184 20-05-2010 12:48:02 14 C 4.82 g/m*3 14 C 0 km/h
185 20-05-2010 13:00:02 14 C 4.95 g/m*3 14 C 0 km/h
186 20-05-2010 13:12:02 14.1 C 5.1 g/m*3 14.1 C 0 km/h
187 20-05-2010 13:24:01 13 C 6.01 g/m*3 13 C 0 km/h
188 20-05-2010 13:36:02 12.9 C 6.88 g/m*3 12.9 C 0 km/h
189 20-05-2010 13:48:02 13.1 C 7.3 g/m*3 13.1 C 0 km/h
190 20-05-2010 14:00:02 12.8 C 7.39 g/m*3 12.8 C 0 km/h
191 20-05-2010 14:12:02 13.5 C 7.84 g/m*3 13.5 C 0 km/h
192 20-05-2010 14:24:02 13.9 C 7.67 g/m*3 13.9 C 0 km/h
193 20-05-2010 14:36:02 13.9 C 7.43 g/m*3 13.9 C 0 km/h
194 20-05-2010 14:48:02 13.8 C 7.63 g/m*3 13.8 C 0 km/h
195 20-05-2010 15:00:02 13.7 C 7.7 g/m*3 13.7 C 0 km/h
196 20-05-2010 15:12:03 13.4 C 7.56 g/m*3 13.4 C 0 km/h
197 20-05-2010 15:24:02 12 C 7.67 g/m*3 12 C 0 km/h
198 20-05-2010 15:36:02 12.1 C 7.83 g/m*3 12.1 C 0 km/h
199 20-05-2010 15:48:02 12.5 C 7.59 g/m*3 12.5 C 0 km/h
200 20-05-2010 16:00:02 13.1 C 7.87 g/m*3 13.1 C 0 km/h
Sensor: Nr:Datum:Temp:Abs-Feuchte:Windchill:Wind:
Aussen-T/F 201 20-05-2010 16:12:02 12.9 C 7.55 g/m*3 12.9 C 0 km/h
202 20-05-2010 16:24:01 12.4 C 7.21 g/m*3 12.4 C 0 km/h
203 20-05-2010 16:36:02 12.6 C 7.85 g/m*3 12.6 C 0 km/h
204 20-05-2010 16:48:02 12.8 C 8.06 g/m*3 12.8 C 0 km/h
205 20-05-2010 17:00:02 13.3 C 8.2 g/m*3 13.3 C 0 km/h
206 20-05-2010 17:12:02 14.2 C 7.82 g/m*3 14.2 C 0 km/h
207 20-05-2010 17:24:02 14 C 7.24 g/m*3 14 C 0 km/h
208 20-05-2010 17:36:02 14.3 C 7.86 g/m*3 14.3 C 0 km/h
209 20-05-2010 17:48:02 14.2 C 7.57 g/m*3 14.2 C 0 km/h
210 20-05-2010 18:00:02 14.4 C 7.91 g/m*3 14.4 C 0 km/h
211 20-05-2010 18:12:02 14.6 C 7.88 g/m*3 14.6 C 0 km/h
212 20-05-2010 18:24:02 14.7 C 7.81 g/m*3 14.7 C 0 km/h
213 20-05-2010 18:36:02 15 C 8.08 g/m*3 15 C 0 km/h
214 20-05-2010 18:48:02 14.8 C 7.73 g/m*3 14.8 C 0 km/h
215 20-05-2010 19:00:02 14.7 C 8.06 g/m*3 14.7 C 0 km/h
216 20-05-2010 19:12:02 14.8 C 8.23 g/m*3 14.8 C 0 km/h
217 20-05-2010 19:24:03 14.8 C 8.23 g/m*3 14.8 C 0 km/h
218 20-05-2010 19:36:02 14.9 C 8.28 g/m*3 14.9 C 0 km/h
219 20-05-2010 19:48:02 14.8 C 8.11 g/m*3 14.8 C 0 km/h
220 20-05-2010 20:00:02 14.8 C 8.11 g/m*3 14.8 C 0 km/h
221 20-05-2010 20:12:02 14.7 C 8.06 g/m*3 14.7 C 0 km/h
222 20-05-2010 20:24:03 14.4 C 7.91 g/m*3 14.4 C 0 km/h
223 20-05-2010 20:36:02 14.1 C 7.65 g/m*3 14.1 C 0 km/h
224 20-05-2010 20:48:03 13.8 C 7.86 g/m*3 13.8 C 0 km/h
225 20-05-2010 21:00:03 13.5 C 7.95 g/m*3 13.5 C 0 km/h
Sensor: Nr:Datum:Temp:Abs-Feuchte:Windchill:Wind:
Aussen-T/F 226 20-05-2010 21:12:02 13.2 C 7.58 g/m*3 13.2 C 0 km/h
227 20-05-2010 21:24:02 12.8 C 7.5 g/m*3 12.8 C 0 km/h
228 20-05-2010 21:36:02 12.8 C 7.62 g/m*3 12.8 C 0 km/h
229 20-05-2010 21:48:02 12.6 C 7.41 g/m*3 12.6 C 0 km/h
230 20-05-2010 22:00:02 12.5 C 7.37 g/m*3 12.5 C 0 km/h
231 20-05-2010 22:12:02 12.4 C 7.32 g/m*3 12.4 C 0 km/h
232 20-05-2010 22:24:02 12.2 C 7.01 g/m*3 12.2 C 0 km/h
233 20-05-2010 22:36:02 12.2 C 7.12 g/m*3 12.2 C 0 km/h
234 20-05-2010 22:49:03 12.2 C 7.23 g/m*3 12.2 C 0 km/h
235 20-05-2010 23:01:03 12.2 C 7.34 g/m*3 12.2 C 0 km/h
236 20-05-2010 23:13:03 12.1 C 7.51 g/m*3 12.1 C 0 km/h
237 20-05-2010 23:25:03 12.1 C 7.61 g/m*3 12.1 C 0 km/h
238 20-05-2010 23:37:03 11.7 C 7.64 g/m*3 11.7 C 0 km/h
239 20-05-2010 23:49:03 11.4 C 7.6 g/m*3 11.4 C 0 km/h
240 21-05-2010 00:01:03 11.1 C 7.45 g/m*3 11.1 C 0 km/h
241 21-05-2010 00:13:03 10.7 C 7.27 g/m*3 10.7 C 0 km/h
242 21-05-2010 00:25:03 10.6 C 7.32 g/m*3 10.6 C 0 km/h
243 21-05-2010 00:37:03 10.5 C 7.27 g/m*3 10.5 C 0 km/h
244 21-05-2010 00:49:03 10.3 C 7.18 g/m*3 10.3 C 0 km/h
245 21-05-2010 01:01:03 10.1 C 7.19 g/m*3 10.1 C 0 km/h
246 21-05-2010 01:13:03 10.1 C 7.28 g/m*3 10.1 C 0 km/h
247 21-05-2010 01:25:03 10.2 C 7.33 g/m*3 10.2 C 0 km/h
248 21-05-2010 01:37:03 10.2 C 7.33 g/m*3 10.2 C 0 km/h
249 21-05-2010 01:49:03 10.1 C 7.38 g/m*3 10.1 C 0 km/h
250 21-05-2010 02:01:03 10 C 7.33 g/m*3 10 C 0 km/h
Sensor: Nr:Datum:Temp:Abs-Feuchte:Windchill:Wind:
Aussen-T/F 251 21-05-2010 02:13:03 9.7 C 7.28 g/m*3 9.7 C 0 km/h
252 21-05-2010 02:25:03 9.5 C 7.28 g/m*3 9.5 C 0 km/h
253 21-05-2010 02:37:03 9.2 C 7.23 g/m*3 9.2 C 0 km/h
254 21-05-2010 02:49:04 9.1 C 7.19 g/m*3 9.1 C 0 km/h
255 21-05-2010 03:01:04 9 C 7.23 g/m*3 9 C 0 km/h
256 21-05-2010 03:13:04 8.8 C 7.31 g/m*3 8.8 C 0 km/h
257 21-05-2010 03:25:04 8.6 C 7.22 g/m*3 8.6 C 0 km/h
258 21-05-2010 03:37:04 8.5 C 7.34 g/m*3 8.5 C 0 km/h
259 21-05-2010 03:49:04 8.2 C 7.2 g/m*3 8.2 C 0 km/h
260 21-05-2010 04:01:04 8.1 C 7.16 g/m*3 8.1 C 0 km/h
261 21-05-2010 04:13:04 8 C 7.11 g/m*3 8 C 0 km/h
262 21-05-2010 04:25:04 7.9 C 7.15 g/m*3 7.9 C 0 km/h
263 21-05-2010 04:37:04 7.8 C 7.1 g/m*3 7.8 C 0 km/h
264 21-05-2010 04:49:04 7.6 C 7.09 g/m*3 7.6 C 0 km/h
265 21-05-2010 05:01:04 8.1 C 7.32 g/m*3 8.1 C 0 km/h
266 21-05-2010 05:13:04 8.2 C 7.37 g/m*3 8.2 C 0 km/h
267 21-05-2010 05:25:04 8.2 C 7.37 g/m*3 8.2 C 0 km/h
268 21-05-2010 05:37:04 8.1 C 7.32 g/m*3 8.1 C 0 km/h
269 21-05-2010 05:49:04 7.9 C 7.23 g/m*3 7.9 C 0 km/h
270 21-05-2010 06:01:04 7.8 C 7.26 g/m*3 7.8 C 0 km/h
271 21-05-2010 06:13:04 7.9 C 7.39 g/m*3 7.9 C 0 km/h
272 21-05-2010 06:25:04 8 C 7.36 g/m*3 8 C 0 km/h
273 21-05-2010 06:37:04 8.2 C 7.45 g/m*3 8.2 C 0 km/h
274 21-05-2010 06:49:04 8.5 C 7.68 g/m*3 8.5 C 0 km/h
275 21-05-2010 07:01:02 8.7 C 7.78 g/m*3 8.7 C 0 km/h
Sensor: Nr:Datum:Temp:Abs-Feuchte:Windchill:Wind:
Aussen-T/F 276 21-05-2010 07:13:02 8.6 C 7.65 g/m*3 8.6 C 0 km/h
277 21-05-2010 07:25:03 8.4 C 7.47 g/m*3 8.4 C 0 km/h
278 21-05-2010 07:37:02 8.4 C 7.47 g/m*3 8.4 C 0 km/h
279 21-05-2010 07:49:02 8.5 C 7.51 g/m*3 8.5 C 0 km/h
280 21-05-2010 08:01:02 8.7 C 7.52 g/m*3 8.7 C 0 km/h
281 21-05-2010 08:13:02 8.8 C 7.57 g/m*3 8.8 C 0 km/h
282 21-05-2010 08:25:02 9.2 C 7.5 g/m*3 9.2 C 0 km/h
283 21-05-2010 08:37:03 9.6 C 7.6 g/m*3 9.6 C 0 km/h
284 21-05-2010 08:49:02 9.7 C 7.56 g/m*3 9.7 C 0 km/h
285 21-05-2010 09:01:01 9.9 C 7.66 g/m*3 9.9 C 0 km/h
286 21-05-2010 09:13:01 10.2 C 7.71 g/m*3 10.2 C 0 km/h
287 21-05-2010 09:25:02 10.6 C 7.91 g/m*3 10.6 C 0 km/h
288 21-05-2010 09:37:02 11.4 C 8.11 g/m*3 11.4 C 0 km/h
289 21-05-2010 09:49:02 12 C 8.1 g/m*3 12 C 0 km/h
290 21-05-2010 10:01:03 12.8 C 8.4 g/m*3 12.8 C 0 km/h
291 21-05-2010 10:13:03 13.6 C 8.47 g/m*3 13.6 C 0 km/h
292 21-05-2010 10:25:02 14.5 C 8.46 g/m*3 14.5 C 0 km/h
293 21-05-2010 10:37:03 15.5 C 8.2 g/m*3 15.5 C 0 km/h
294 21-05-2010 10:49:02 16.5 C 7.72 g/m*3 16.5 C 0 km/h
295 21-05-2010 11:01:02 17.2 C 7.47 g/m*3 17.2 C 0 km/h
296 21-05-2010 11:13:02 17.8 C 7.59 g/m*3 17.8 C 0 km/h
297 21-05-2010 11:25:01 18.6 C 7.48 g/m*3 18.6 C 0 km/h
298 21-05-2010 11:37:02 19.2 C 7.42 g/m*3 19.2 C 0 km/h
299 21-05-2010 11:49:02 19.5 C 6.71 g/m*3 19.5 C 0 km/h
300 21-05-2010 12:01:02 19.2 C 6.27 g/m*3 19.2 C 0 km/h
Sensor: Nr:Datum:Temp:Abs-Feuchte:Windchill:Wind:
Aussen-T/F 301 21-05-2010 12:13:02 20.6 C 6.62 g/m*3 20.6 C 0 km/h
302 21-05-2010 12:25:02 20.9 C 6.19 g/m*3 20.9 C 0 km/h
303 21-05-2010 12:37:02 20.8 C 5.61 g/m*3 20.8 C 0 km/h
304 21-05-2010 12:49:02 21.2 C 5.37 g/m*3 21.2 C 0 km/h
305 21-05-2010 13:01:02 21.9 C 5.79 g/m*3 21.9 C 0 km/h
306 21-05-2010 13:13:02 23.7 C 5.35 g/m*3 23.7 C 0 km/h
307 21-05-2010 13:25:02 24.8 C 5.01 g/m*3 24.8 C 0 km/h
308 21-05-2010 13:37:02 25.2 C 4.89 g/m*3 25.2 C 0 km/h
309 21-05-2010 13:49:02 23.3 C 4.39 g/m*3 23.3 C 0 km/h
310 21-05-2010 14:01:02 23.1 C 5.17 g/m*3 23.1 C 0 km/h
311 21-05-2010 14:13:02 23.5 C 5.29 g/m*3 23.5 C 0 km/h
312 21-05-2010 14:25:02 24.4 C 5.12 g/m*3 24.4 C 0 km/h
313 21-05-2010 14:37:02 23.8 C 4.95 g/m*3 23.8 C 0 km/h
314 21-05-2010 14:49:02 24.6 C 5.63 g/m*3 24.6 C 0 km/h
315 21-05-2010 15:01:02 23.9 C 4.98 g/m*3 23.9 C 0 km/h
316 21-05-2010 15:13:02 25.2 C 5.12 g/m*3 25.2 C 0 km/h
317 21-05-2010 15:25:03 25.8 C 5.54 g/m*3 25.8 C 0 km/h
318 21-05-2010 15:37:02 25.7 C 4.79 g/m*3 25.7 C 0 km/h
319 21-05-2010 15:49:02 26.5 C 5.26 g/m*3 26.5 C 0 km/h
320 21-05-2010 16:01:02 26.3 C 4.95 g/m*3 26.3 C 0 km/h
321 21-05-2010 16:13:02 24.4 C 4.9 g/m*3 24.4 C 0 km/h
322 21-05-2010 16:25:02 25.3 C 4.92 g/m*3 25.3 C 0 km/h
323 21-05-2010 16:37:02 25 C 4.83 g/m*3 25 C 0 km/h
324 21-05-2010 16:49:02 25.4 C 4.71 g/m*3 25.4 C 0 km/h
325 21-05-2010 17:01:02 26.4 C 4.98 g/m*3 26.4 C 0 km/h
Sensor: Nr:Datum:Temp:Abs-Feuchte:Windchill:Wind:
Aussen-T/F 326 21-05-2010 17:13:02 25.7 C 4.79 g/m*3 25.7 C 0 km/h
327 21-05-2010 17:25:02 26.1 C 4.9 g/m*3 26.1 C 0 km/h
328 21-05-2010 17:37:02 26.7 C 5.06 g/m*3 26.7 C 0 km/h
329 21-05-2010 17:49:02 25.8 C 4.82 g/m*3 25.8 C 0 km/h
330 21-05-2010 18:01:01 26.4 C 4.98 g/m*3 26.4 C 0 km/h
331 21-05-2010 18:13:01 27 C 5.15 g/m*3 27 C 0 km/h
332 21-05-2010 18:25:02 26.2 C 4.92 g/m*3 26.2 C 0 km/h
333 21-05-2010 18:37:02 25.3 C 4.92 g/m*3 25.3 C 0 km/h
334 21-05-2010 18:49:02 24.8 C 5.24 g/m*3 24.8 C 0 km/h
335 21-05-2010 19:01:01 24.9 C 5.72 g/m*3 24.9 C 0 km/h
336 21-05-2010 19:13:01 24.6 C 5.63 g/m*3 24.6 C 0 km/h
337 21-05-2010 19:25:01 24.6 C 5.85 g/m*3 24.6 C 0 km/h
338 21-05-2010 19:37:02 24.1 C 5.69 g/m*3 24.1 C 0 km/h
339 21-05-2010 19:49:02 24 C 6.09 g/m*3 24 C 0 km/h
340 21-05-2010 20:01:02 23.6 C 5.96 g/m*3 23.6 C 0 km/h
341 21-05-2010 20:13:02 23.3 C 6.27 g/m*3 23.3 C 0 km/h
342 21-05-2010 20:25:02 22.9 C 6.34 g/m*3 22.9 C 0 km/h
343 21-05-2010 20:37:02 22.3 C 6.12 g/m*3 22.3 C 0 km/h
344 21-05-2010 20:49:02 21.2 C 6.49 g/m*3 21.2 C 0 km/h
345 21-05-2010 21:01:03 20.8 C 6.52 g/m*3 20.8 C 0 km/h
346 21-05-2010 21:13:03 20.4 C 6.55 g/m*3 20.4 C 0 km/h
347 21-05-2010 21:25:03 20 C 6.57 g/m*3 20 C 0 km/h
348 21-05-2010 21:37:03 19.8 C 6.66 g/m*3 19.8 C 0 km/h
349 21-05-2010 21:49:02 19.4 C 6.67 g/m*3 19.4 C 0 km/h
350 21-05-2010 22:01:02 18.9 C 6.97 g/m*3 18.9 C 0 km/h
Sensor: Nr:Datum:Temp:Abs-Feuchte:Windchill:Wind:
Aussen-T/F 351 21-05-2010 22:13:02 18.4 C 6.92 g/m*3 18.4 C 0 km/h
352 21-05-2010 22:25:02 18.2 C 7.15 g/m*3 18.2 C 0 km/h
353 21-05-2010 22:37:02 17.9 C 7.33 g/m*3 17.9 C 0 km/h
354 21-05-2010 22:49:02 17 C 7.38 g/m*3 17 C 0 km/h
355 21-05-2010 23:01:02 17 C 7.23 g/m*3 17 C 0 km/h
356 21-05-2010 23:13:02 16.4 C 7.12 g/m*3 16.4 C 0 km/h
357 21-05-2010 23:25:02 16.2 C 7.17 g/m*3 16.2 C 0 km/h
358 21-05-2010 23:38:04 15.9 C 7.31 g/m*3 15.9 C 0 km/h
359 21-05-2010 23:50:04 15.8 C 7.54 g/m*3 15.8 C 0 km/h
360 22-05-2010 00:02:04 15.6 C 7.58 g/m*3 15.6 C 0 km/h
361 22-05-2010 00:14:04 15.4 C 7.49 g/m*3 15.4 C 0 km/h
362 22-05-2010 00:26:04 15.1 C 7.61 g/m*3 15.1 C 0 km/h
363 22-05-2010 00:38:04 14.8 C 7.73 g/m*3 14.8 C 0 km/h
364 22-05-2010 00:50:04 14.5 C 7.71 g/m*3 14.5 C 0 km/h
365 22-05-2010 01:02:04 14.4 C 7.79 g/m*3 14.4 C 0 km/h
366 22-05-2010 01:14:04 14.1 C 7.77 g/m*3 14.1 C 0 km/h
367 22-05-2010 01:26:04 13.9 C 7.91 g/m*3 13.9 C 0 km/h
368 22-05-2010 01:38:04 13.6 C 7.77 g/m*3 13.6 C 0 km/h
369 22-05-2010 01:50:04 13.4 C 7.9 g/m*3 13.4 C 0 km/h
370 22-05-2010 02:02:04 13.2 C 7.92 g/m*3 13.2 C 0 km/h
371 22-05-2010 02:14:04 12.9 C 7.89 g/m*3 12.9 C 0 km/h
372 22-05-2010 02:26:04 12.7 C 7.9 g/m*3 12.7 C 0 km/h
373 22-05-2010 02:38:04 12.5 C 7.92 g/m*3 12.5 C 0 km/h
374 22-05-2010 02:50:04 12.4 C 7.98 g/m*3 12.4 C 0 km/h
375 22-05-2010 03:02:04 12.3 C 7.93 g/m*3 12.3 C 0 km/h
Sensor: Nr:Datum:Temp:Abs-Feuchte:Windchill:Wind:
Aussen-T/F 376 22-05-2010 03:14:04 12.1 C 7.94 g/m*3 12.1 C 0 km/h
377 22-05-2010 03:26:04 12 C 7.89 g/m*3 12 C 0 km/h
378 22-05-2010 03:38:05 11.9 C 7.94 g/m*3 11.9 C 0 km/h
379 22-05-2010 03:50:05 11.7 C 7.95 g/m*3 11.7 C 0 km/h
380 22-05-2010 04:02:05 11.5 C 7.95 g/m*3 11.5 C 0 km/h
381 22-05-2010 04:14:05 11.2 C 7.91 g/m*3 11.2 C 0 km/h
382 22-05-2010 04:26:05 11 C 7.81 g/m*3 11 C 0 km/h
383 22-05-2010 04:38:05 10.9 C 7.96 g/m*3 10.9 C 0 km/h
384 22-05-2010 04:50:05 10.7 C 7.86 g/m*3 10.7 C 0 km/h
385 22-05-2010 05:02:05 10.7 C 7.86 g/m*3 10.7 C 0 km/h
386 22-05-2010 05:14:05 10.3 C 7.76 g/m*3 10.3 C 0 km/h
387 22-05-2010 05:26:05 10.3 C 7.76 g/m*3 10.3 C 0 km/h
388 22-05-2010 05:38:05 10.2 C 7.8 g/m*3 10.2 C 0 km/h
389 22-05-2010 05:50:05 10 C 7.71 g/m*3 10 C 0 km/h
390 22-05-2010 06:02:05 9.9 C 7.75 g/m*3 9.9 C 0 km/h
391 22-05-2010 06:14:05 9.9 C 7.75 g/m*3 9.9 C 0 km/h
392 22-05-2010 06:26:05 9.9 C 7.75 g/m*3 9.9 C 0 km/h
393 22-05-2010 06:38:05 10.1 C 7.75 g/m*3 10.1 C 0 km/h
394 22-05-2010 06:50:05 10 C 7.71 g/m*3 10 C 0 km/h
395 22-05-2010 07:02:05 10.2 C 7.8 g/m*3 10.2 C 0 km/h
396 22-05-2010 07:14:05 10.2 C 7.8 g/m*3 10.2 C 0 km/h
397 22-05-2010 07:26:03 10.3 C 7.85 g/m*3 10.3 C 0 km/h
398 22-05-2010 07:38:03 10.7 C 8.05 g/m*3 10.7 C 0 km/h
399 22-05-2010 07:50:02 11.3 C 8.36 g/m*3 11.3 C 0 km/h
400 22-05-2010 08:02:02 11.7 C 8.26 g/m*3 11.7 C 0 km/h
Sensor: Nr:Datum:Temp:Abs-Feuchte:Windchill:Wind:
Aussen-T/F 401 22-05-2010 08:14:02 12 C 8.1 g/m*3 12 C 0 km/h
402 22-05-2010 08:26:02 12.3 C 8.04 g/m*3 12.3 C 0 km/h
403 22-05-2010 08:38:03 12.6 C 7.85 g/m*3 12.6 C 0 km/h
404 22-05-2010 08:50:02 13 C 7.48 g/m*3 13 C 0 km/h
405 22-05-2010 09:02:02 13.3 C 7.39 g/m*3 13.3 C 0 km/h
406 22-05-2010 09:14:02 13.7 C 7.46 g/m*3 13.7 C 0 km/h
407 22-05-2010 09:26:02 13.9 C 7.55 g/m*3 13.9 C 0 km/h
408 22-05-2010 09:38:02 14.3 C 7.13 g/m*3 14.3 C 0 km/h
409 22-05-2010 09:50:02 14.8 C 7.09 g/m*3 14.8 C 0 km/h
410 22-05-2010 10:02:02 15.3 C 6.4 g/m*3 15.3 C 0 km/h
411 22-05-2010 10:14:02 15.8 C 6.33 g/m*3 15.8 C 0 km/h
412 22-05-2010 10:26:02 16 C 6.13 g/m*3 16 C 0 km/h
413 22-05-2010 10:38:02 16.7 C 6.4 g/m*3 16.7 C 0 km/h
414 22-05-2010 10:50:01 17 C 6.22 g/m*3 17 C 0 km/h
415 22-05-2010 11:02:02 17.6 C 6.3 g/m*3 17.6 C 0 km/h
416 22-05-2010 11:14:02 18 C 6.14 g/m*3 18 C 0 km/h
417 22-05-2010 11:26:01 18.1 C 6.03 g/m*3 18.1 C 0 km/h
418 22-05-2010 11:38:02 18.7 C 6.08 g/m*3 18.7 C 0 km/h
419 22-05-2010 11:50:02 19.1 C 5.9 g/m*3 19.1 C 0 km/h
420 22-05-2010 12:02:02 19.3 C 5.81 g/m*3 19.3 C 0 km/h
421 22-05-2010 12:14:02 20.2 C 5.94 g/m*3 20.2 C 0 km/h
422 22-05-2010 12:26:01 21.8 C 5.95 g/m*3 21.8 C 0 km/h
423 22-05-2010 12:38:01 21.3 C 5.59 g/m*3 21.3 C 0 km/h
424 22-05-2010 12:50:01 23.3 C 5.85 g/m*3 23.3 C 0 km/h
425 22-05-2010 13:02:01 23.7 C 5.78 g/m*3 23.7 C 0 km/h
Sensor: Nr:Datum:Temp:Abs-Feuchte:Windchill:Wind:
Aussen-T/F 426 22-05-2010 13:14:01 24.2 C 5.72 g/m*3 24.2 C 0 km/h
427 22-05-2010 13:26:01 24.2 C 5.5 g/m*3 24.2 C 0 km/h
428 22-05-2010 13:38:00 24.7 C 5.43 g/m*3 24.7 C 0 km/h
429 22-05-2010 13:50:01 24.4 C 5.56 g/m*3 24.4 C 0 km/h
430 22-05-2010 14:02:01 24 C 5 g/m*3 24 C 0 km/h
431 22-05-2010 14:14:01 23.6 C 5.74 g/m*3 23.6 C 0 km/h
432 22-05-2010 14:26:01 24 C 5.66 g/m*3 24 C 0 km/h
433 22-05-2010 14:38:01 23.9 C 5.84 g/m*3 23.9 C 0 km/h
434 22-05-2010 14:50:01 24.3 C 5.75 g/m*3 24.3 C 0 km/h
435 22-05-2010 15:02:01 24.9 C 5.95 g/m*3 24.9 C 0 km/h
436 22-05-2010 15:14:01 25.4 C 5.89 g/m*3 25.4 C 0 km/h
437 22-05-2010 15:26:02 25.6 C 5.95 g/m*3 25.6 C 0 km/h
438 22-05-2010 15:38:01 25.3 C 6.09 g/m*3 25.3 C 0 km/h
439 22-05-2010 15:50:03 25.5 C 5.92 g/m*3 25.5 C 0 km/h
440 22-05-2010 16:02:02 25.7 C 6.22 g/m*3 25.7 C 0 km/h
441 22-05-2010 16:14:02 25.8 C 6.02 g/m*3 25.8 C 0 km/h
442 22-05-2010 16:26:03 26.1 C 6.12 g/m*3 26.1 C 0 km/h
443 22-05-2010 16:38:02 25.6 C 6.19 g/m*3 25.6 C 0 km/h
444 22-05-2010 16:50:02 26.3 C 6.19 g/m*3 26.3 C 0 km/h
445 22-05-2010 17:02:01 26.7 C 6.33 g/m*3 26.7 C 0 km/h
446 22-05-2010 17:14:01 27 C 6.18 g/m*3 27 C 0 km/h
447 22-05-2010 17:26:02 27.1 C 6.47 g/m*3 27.1 C 0 km/h
448 22-05-2010 17:38:01 27.2 C 6.51 g/m*3 27.2 C 0 km/h
449 22-05-2010 17:50:02 26.4 C 6.47 g/m*3 26.4 C 0 km/h
450 22-05-2010 18:02:02 26.4 C 6.47 g/m*3 26.4 C 0 km/h
Sensor: Nr:Datum:Temp:Abs-Feuchte:Windchill:Wind:
Aussen-T/F 451 22-05-2010 18:14:02 26.9 C 6.65 g/m*3 26.9 C 0 km/h
452 22-05-2010 18:26:02 26.6 C 6.54 g/m*3 26.6 C 0 km/h
453 22-05-2010 18:38:03 26.1 C 6.37 g/m*3 26.1 C 0 km/h
454 22-05-2010 18:50:02 26.8 C 6.62 g/m*3 26.8 C 0 km/h
455 22-05-2010 19:02:02 26.4 C 6.47 g/m*3 26.4 C 0 km/h
456 22-05-2010 19:14:02 26.6 C 6.54 g/m*3 26.6 C 0 km/h
457 22-05-2010 19:26:02 26.4 C 6.72 g/m*3 26.4 C 0 km/h
458 22-05-2010 19:38:02 26.2 C 6.65 g/m*3 26.2 C 0 km/h
459 22-05-2010 19:50:01 25.9 C 7.02 g/m*3 25.9 C 0 km/h
460 22-05-2010 20:02:02 25.4 C 6.83 g/m*3 25.4 C 0 km/h
461 22-05-2010 20:14:02 24.9 C 7.1 g/m*3 24.9 C 0 km/h
462 22-05-2010 20:26:01 24.6 C 7.43 g/m*3 24.6 C 0 km/h
463 22-05-2010 20:38:02 24.2 C 7.48 g/m*3 24.2 C 0 km/h
464 22-05-2010 20:50:02 23.3 C 7.32 g/m*3 23.3 C 0 km/h
465 22-05-2010 21:02:02 22.7 C 7.48 g/m*3 22.7 C 0 km/h
466 22-05-2010 21:14:02 22 C 7.76 g/m*3 22 C 0 km/h
467 22-05-2010 21:26:02 21.2 C 7.41 g/m*3 21.2 C 0 km/h
468 22-05-2010 21:38:02 20.8 C 7.24 g/m*3 20.8 C 0 km/h
469 22-05-2010 21:50:02 20.3 C 7.03 g/m*3 20.3 C 0 km/h
470 22-05-2010 22:02:03 19.9 C 7.22 g/m*3 19.9 C 0 km/h
471 22-05-2010 22:14:03 19.5 C 6.88 g/m*3 19.5 C 0 km/h
472 22-05-2010 22:26:02 19.4 C 6.84 g/m*3 19.4 C 0 km/h
473 22-05-2010 22:38:02 19.2 C 7.26 g/m*3 19.2 C 0 km/h
474 22-05-2010 22:50:02 18.7 C 7.36 g/m*3 18.7 C 0 km/h
475 22-05-2010 23:02:02 18.4 C 7.39 g/m*3 18.4 C 0 km/h
Sensor: Nr:Datum:Temp:Abs-Feuchte:Windchill:Wind:
Aussen-T/F 476 22-05-2010 23:14:02 18.1 C 7.42 g/m*3 18.1 C 0 km/h
477 22-05-2010 23:26:01 17.9 C 7.48 g/m*3 17.9 C 0 km/h
478 22-05-2010 23:38:02 17.6 C 7.5 g/m*3 17.6 C 0 km/h
479 22-05-2010 23:50:02 17.5 C 7.6 g/m*3 17.5 C 0 km/h
480 23-05-2010 00:02:02 17.3 C 7.66 g/m*3 17.3 C 0 km/h
481 23-05-2010 00:14:02 17.1 C 7.71 g/m*3 17.1 C 0 km/h
482 23-05-2010 00:26:02 16.6 C 7.91 g/m*3 16.6 C 0 km/h
483 23-05-2010 00:38:02 16.2 C 7.86 g/m*3 16.2 C 0 km/h
484 23-05-2010 00:50:01 16 C 8.04 g/m*3 16 C 0 km/h
485 23-05-2010 01:02:02 15.7 C 8.16 g/m*3 15.7 C 0 km/h
486 23-05-2010 01:14:02 15.4 C 8.15 g/m*3 15.4 C 0 km/h
487 23-05-2010 01:26:02 15.2 C 8.18 g/m*3 15.2 C 0 km/h
488 23-05-2010 01:38:02 14.9 C 8.28 g/m*3 14.9 C 0 km/h
489 23-05-2010 01:50:02 14.5 C 8.33 g/m*3 14.5 C 0 km/h
490 23-05-2010 02:02:02 14.4 C 8.41 g/m*3 14.4 C 0 km/h
491 23-05-2010 02:14:02 14.2 C 8.3 g/m*3 14.2 C 0 km/h
492 23-05-2010 02:26:02 14.2 C 8.43 g/m*3 14.2 C 0 km/h
493 23-05-2010 02:38:01 14 C 8.32 g/m*3 14 C 0 km/h
494 23-05-2010 02:50:02 13.9 C 8.51 g/m*3 13.9 C 0 km/h
495 23-05-2010 03:02:02 13.8 C 8.46 g/m*3 13.8 C 0 km/h
496 23-05-2010 03:14:01 13.7 C 8.53 g/m*3 13.7 C 0 km/h
497 23-05-2010 03:26:01 13.5 C 8.54 g/m*3 13.5 C 0 km/h
498 23-05-2010 03:38:01 13.2 C 8.5 g/m*3 13.2 C 0 km/h
499 23-05-2010 03:50:01 12.9 C 8.45 g/m*3 12.9 C 0 km/h
500 23-05-2010 04:02:02 12.8 C 8.51 g/m*3 12.8 C 0 km/h
Sensor: Nr:Datum:Temp:Abs-Feuchte:Windchill:Wind:
Aussen-T/F 501 23-05-2010 04:14:02 12.7 C 8.46 g/m*3 12.7 C 0 km/h
502 23-05-2010 04:26:01 12.7 C 8.57 g/m*3 12.7 C 0 km/h
503 23-05-2010 04:38:02 12.4 C 8.41 g/m*3 12.4 C 0 km/h
504 23-05-2010 04:50:01 12.3 C 8.47 g/m*3 12.3 C 0 km/h
505 23-05-2010 05:02:02 12.1 C 8.36 g/m*3 12.1 C 0 km/h
506 23-05-2010 05:14:02 12 C 8.42 g/m*3 12 C 0 km/h
507 23-05-2010 05:26:01 11.9 C 8.37 g/m*3 11.9 C 0 km/h
508 23-05-2010 05:38:01 11.8 C 8.31 g/m*3 11.8 C 0 km/h
509 23-05-2010 05:50:01 11.8 C 8.42 g/m*3 11.8 C 0 km/h
510 23-05-2010 06:02:01 11.6 C 8.32 g/m*3 11.6 C 0 km/h
511 23-05-2010 06:14:02 11.5 C 8.26 g/m*3 11.5 C 0 km/h
512 23-05-2010 06:26:01 11.5 C 8.37 g/m*3 11.5 C 0 km/h
513 23-05-2010 06:38:01 11.5 C 8.37 g/m*3 11.5 C 0 km/h
514 23-05-2010 06:50:01 11.5 C 8.37 g/m*3 11.5 C 0 km/h
515 23-05-2010 07:02:01 11.5 C 8.47 g/m*3 11.5 C 0 km/h
516 23-05-2010 07:14:01 11.8 C 8.63 g/m*3 11.8 C 0 km/h
517 23-05-2010 07:26:02 11.9 C 8.68 g/m*3 11.9 C 0 km/h
518 23-05-2010 07:38:01 12.1 C 8.69 g/m*3 12.1 C 0 km/h
519 23-05-2010 07:50:01 12.4 C 8.85 g/m*3 12.4 C 0 km/h
520 23-05-2010 08:02:01 12.7 C 8.91 g/m*3 12.7 C 0 km/h
521 23-05-2010 08:14:01 13.3 C 9.24 g/m*3 13.3 C 0 km/h
522 23-05-2010 08:26:02 14 C 9.41 g/m*3 14 C 0 km/h
523 23-05-2010 08:38:01 14.4 C 9.27 g/m*3 14.4 C 0 km/h
524 23-05-2010 08:50:01 14.8 C 9.37 g/m*3 14.8 C 0 km/h
525 23-05-2010 09:02:01 15.2 C 9.22 g/m*3 15.2 C 0 km/h
Sensor: Nr:Datum:Temp:Abs-Feuchte:Windchill:Wind:
Aussen-T/F 526 23-05-2010 09:14:01 15.7 C 9.37 g/m*3 15.7 C 0 km/h
527 23-05-2010 09:26:02 16.1 C 9.32 g/m*3 16.1 C 0 km/h
528 23-05-2010 09:38:01 16.7 C 9.38 g/m*3 16.7 C 0 km/h
529 23-05-2010 09:50:02 17.2 C 9.08 g/m*3 17.2 C 0 km/h
530 23-05-2010 10:02:01 17.8 C 9.41 g/m*3 17.8 C 0 km/h
531 23-05-2010 10:14:01 18.7 C 9.45 g/m*3 18.7 C 0 km/h
532 23-05-2010 10:26:01 19.2 C 9.4 g/m*3 19.2 C 0 km/h
533 23-05-2010 10:38:01 20 C 9.16 g/m*3 20 C 0 km/h
534 23-05-2010 10:50:01 20.3 C 9.15 g/m*3 20.3 C 0 km/h
535 23-05-2010 11:02:01 20.5 C 8.9 g/m*3 20.5 C 0 km/h
536 23-05-2010 11:14:02 21.2 C 8.9 g/m*3 21.2 C 0 km/h
537 23-05-2010 11:26:01 20.4 C 8.49 g/m*3 20.4 C 0 km/h
538 23-05-2010 11:38:02 20.9 C 8.74 g/m*3 20.9 C 0 km/h
539 23-05-2010 11:50:02 21.5 C 8.11 g/m*3 21.5 C 0 km/h
540 23-05-2010 12:02:01 22.1 C 8 g/m*3 22.1 C 0 km/h
541 23-05-2010 12:14:01 23.1 C 7.65 g/m*3 23.1 C 0 km/h
542 23-05-2010 12:26:01 23.7 C 6.84 g/m*3 23.7 C 0 km/h
543 23-05-2010 12:38:02 24.6 C 6.75 g/m*3 24.6 C 0 km/h
544 23-05-2010 12:50:01 24.7 C 5.66 g/m*3 24.7 C 0 km/h
545 23-05-2010 13:02:01 25.1 C 4.86 g/m*3 25.1 C 0 km/h
546 23-05-2010 13:14:01 25.8 C 4.82 g/m*3 25.8 C 0 km/h
547 23-05-2010 13:26:01 27.2 C 5.2 g/m*3 27.2 C 0 km/h
548 23-05-2010 13:38:02 26.9 C 5.37 g/m*3 26.9 C 0 km/h
549 23-05-2010 13:50:01 26.8 C 5.09 g/m*3 26.8 C 0 km/h
550 23-05-2010 14:02:02 26.2 C 4.92 g/m*3 26.2 C 0 km/h
Sensor: Nr:Datum:Temp:Abs-Feuchte:Windchill:Wind:
Aussen-T/F 551 23-05-2010 14:14:02 25.5 C 5.45 g/m*3 25.5 C 0 km/h
552 23-05-2010 14:26:01 25.6 C 5.48 g/m*3 25.6 C 0 km/h
553 23-05-2010 14:38:01 25.8 C 6.02 g/m*3 25.8 C 0 km/h
554 23-05-2010 14:50:01 27.4 C 6.31 g/m*3 27.4 C 0 km/h
555 23-05-2010 15:02:02 27.7 C 5.88 g/m*3 27.7 C 0 km/h
556 23-05-2010 15:14:02 27.2 C 5.99 g/m*3 27.2 C 0 km/h
557 23-05-2010 15:26:01 27.9 C 5.68 g/m*3 27.9 C 0 km/h
558 23-05-2010 15:38:01 28.2 C 5.77 g/m*3 28.2 C 0 km/h
559 23-05-2010 15:50:01 28.4 C 5.56 g/m*3 28.4 C 0 km/h
560 23-05-2010 16:02:01 28.2 C 5.5 g/m*3 28.2 C 0 km/h
561 23-05-2010 16:14:01 28.6 C 5.62 g/m*3 28.6 C 0 km/h
562 23-05-2010 16:26:01 29 C 5.74 g/m*3 29 C 0 km/h
563 23-05-2010 16:38:01 28.9 C 5.71 g/m*3 28.9 C 0 km/h
564 23-05-2010 16:50:01 29 C 5.74 g/m*3 29 C 0 km/h
565 23-05-2010 17:02:01 30.2 C 6.13 g/m*3 30.2 C 0 km/h
566 23-05-2010 17:14:01 30.1 C 6.1 g/m*3 30.1 C 0 km/h
567 23-05-2010 17:26:01 29.5 C 5.9 g/m*3 29.5 C 0 km/h
568 23-05-2010 17:38:01 29.2 C 6.1 g/m*3 29.2 C 0 km/h
569 23-05-2010 17:50:01 29.2 C 6.1 g/m*3 29.2 C 0 km/h
570 23-05-2010 18:02:01 28.8 C 6.53 g/m*3 28.8 C 0 km/h
571 23-05-2010 18:14:01 29.5 C 6.49 g/m*3 29.5 C 0 km/h
572 23-05-2010 18:26:02 28.6 C 6.74 g/m*3 28.6 C 0 km/h
573 23-05-2010 18:38:01 28.4 C 6.39 g/m*3 28.4 C 0 km/h
574 23-05-2010 18:50:02 28.8 C 6.82 g/m*3 28.8 C 0 km/h
575 23-05-2010 19:02:01 29.8 C 6.6 g/m*3 29.8 C 0 km/h
Sensor: Nr:Datum:Temp:Abs-Feuchte:Windchill:Wind:
Aussen-T/F 576 23-05-2010 19:14:01 27.9 C 6.49 g/m*3 27.9 C 0 km/h
577 23-05-2010 19:26:02 28.1 C 6.84 g/m*3 28.1 C 0 km/h
578 23-05-2010 19:38:01 27.4 C 6.84 g/m*3 27.4 C 0 km/h
579 23-05-2010 19:50:02 27.4 C 7.1 g/m*3 27.4 C 0 km/h
580 23-05-2010 20:02:01 27.1 C 7.25 g/m*3 27.1 C 0 km/h
581 23-05-2010 20:14:01 26.4 C 7.47 g/m*3 26.4 C 0 km/h
582 23-05-2010 20:26:01 27.2 C 7.29 g/m*3 27.2 C 0 km/h
583 23-05-2010 20:38:01 26.3 C 7.43 g/m*3 26.3 C 0 km/h
584 23-05-2010 20:50:01 25.4 C 7.3 g/m*3 25.4 C 0 km/h
585 23-05-2010 21:02:01 24.5 C 7.83 g/m*3 24.5 C 0 km/h
586 23-05-2010 21:14:01 24.1 C 7.66 g/m*3 24.1 C 0 km/h
587 23-05-2010 21:26:01 23.4 C 7.57 g/m*3 23.4 C 0 km/h
588 23-05-2010 21:38:02 23.1 C 7.86 g/m*3 23.1 C 0 km/h
589 23-05-2010 21:50:01 22.6 C 8.04 g/m*3 22.6 C 0 km/h
590 23-05-2010 22:02:02 22.2 C 8.05 g/m*3 22.2 C 0 km/h
591 23-05-2010 22:14:02 21.7 C 8.39 g/m*3 21.7 C 0 km/h
592 23-05-2010 22:26:01 21.3 C 8.57 g/m*3 21.3 C 0 km/h
593 23-05-2010 22:38:02 20.9 C 8.56 g/m*3 20.9 C 0 km/h
594 23-05-2010 22:51:05 20.7 C 8.82 g/m*3 20.7 C 0 km/h
595 23-05-2010 23:03:05 20.4 C 8.85 g/m*3 20.4 C 0 km/h
596 23-05-2010 23:15:05 20 C 8.81 g/m*3 20 C 0 km/h
597 23-05-2010 23:27:05 19.6 C 8.95 g/m*3 19.6 C 0 km/h
598 23-05-2010 23:39:05 19.2 C 8.9 g/m*3 19.2 C 0 km/h
599 23-05-2010 23:51:05 18.8 C 9.18 g/m*3 18.8 C 0 km/h
600 24-05-2010 00:03:05 18.4 C 9.12 g/m*3 18.4 C 0 km/h
Sensor: Nr:Datum:Temp:Abs-Feuchte:Windchill:Wind:
Aussen-T/F 601 24-05-2010 00:15:05 18 C 9.06 g/m*3 18 C 0 km/h
602 24-05-2010 00:27:05 17.9 C 9.16 g/m*3 17.9 C 0 km/h
603 24-05-2010 00:39:05 17.6 C 9.3 g/m*3 17.6 C 0 km/h
604 24-05-2010 00:51:05 17.3 C 9.28 g/m*3 17.3 C 0 km/h
605 24-05-2010 01:03:05 17.2 C 9.23 g/m*3 17.2 C 0 km/h
606 24-05-2010 01:15:05 16.8 C 9.44 g/m*3 16.8 C 0 km/h
607 24-05-2010 01:27:05 16.6 C 9.46 g/m*3 16.6 C 0 km/h
608 24-05-2010 01:39:05 16.3 C 9.43 g/m*3 16.3 C 0 km/h
609 24-05-2010 01:51:05 16 C 9.4 g/m*3 16 C 0 km/h
610 24-05-2010 02:03:05 15.8 C 9.56 g/m*3 15.8 C 0 km/h
611 24-05-2010 02:15:05 15.6 C 9.44 g/m*3 15.6 C 0 km/h
612 24-05-2010 02:27:05 15.5 C 9.52 g/m*3 15.5 C 0 km/h
613 24-05-2010 02:39:05 15.3 C 9.4 g/m*3 15.3 C 0 km/h
614 24-05-2010 02:51:05 15.1 C 9.29 g/m*3 15.1 C 0 km/h
615 24-05-2010 03:03:06 14.9 C 9.43 g/m*3 14.9 C 0 km/h
616 24-05-2010 03:15:06 14.6 C 9.26 g/m*3 14.6 C 0 km/h
617 24-05-2010 03:27:06 14.4 C 9.27 g/m*3 14.4 C 0 km/h
618 24-05-2010 03:39:06 14.4 C 9.27 g/m*3 14.4 C 0 km/h
619 24-05-2010 03:51:06 14.2 C 9.28 g/m*3 14.2 C 0 km/h
620 24-05-2010 04:03:06 14 C 9.17 g/m*3 14 C 0 km/h
621 24-05-2010 04:15:06 13.8 C 9.29 g/m*3 13.8 C 0 km/h
622 24-05-2010 04:27:06 13.8 C 9.17 g/m*3 13.8 C 0 km/h
623 24-05-2010 04:39:06 13.8 C 9.17 g/m*3 13.8 C 0 km/h
624 24-05-2010 04:51:06 13.7 C 9.12 g/m*3 13.7 C 0 km/h
625 24-05-2010 05:03:06 13.5 C 9.01 g/m*3 13.5 C 0 km/h
Sensor: Nr:Datum:Temp:Abs-Feuchte:Windchill:Wind:
Aussen-T/F 626 24-05-2010 05:15:06 13.3 C 8.9 g/m*3 13.3 C 0 km/h
627 24-05-2010 05:27:06 13 C 8.73 g/m*3 13 C 0 km/h
628 24-05-2010 05:39:06 13 C 8.85 g/m*3 13 C 0 km/h
629 24-05-2010 05:51:06 12.8 C 8.85 g/m*3 12.8 C 0 km/h
630 24-05-2010 06:03:06 12.9 C 9.02 g/m*3 12.9 C 0 km/h
631 24-05-2010 06:15:06 12.7 C 8.79 g/m*3 12.7 C 0 km/h
632 24-05-2010 06:27:06 12.5 C 8.8 g/m*3 12.5 C 0 km/h
633 24-05-2010 06:39:06 12.6 C 8.96 g/m*3 12.6 C 0 km/h
634 24-05-2010 06:51:06 13 C 9.19 g/m*3 13 C 0 km/h
635 24-05-2010 07:03:06 13.2 C 9.19 g/m*3 13.2 C 0 km/h
636 24-05-2010 07:15:07 13.4 C 9.18 g/m*3 13.4 C 0 km/h
637 24-05-2010 07:27:07 13.7 C 9.35 g/m*3 13.7 C 0 km/h
638 24-05-2010 07:39:07 13.8 C 9.29 g/m*3 13.8 C 0 km/h
639 24-05-2010 07:51:07 13.9 C 9.23 g/m*3 13.9 C 0 km/h
640 24-05-2010 08:03:07 14.2 C 9.28 g/m*3 14.2 C 0 km/h
641 24-05-2010 08:15:07 14.5 C 9.45 g/m*3 14.5 C 0 km/h
642 24-05-2010 08:27:07 14.8 C 9.5 g/m*3 14.8 C 0 km/h
643 24-05-2010 08:39:05 15.2 C 9.61 g/m*3 15.2 C 0 km/h
644 24-05-2010 08:51:02 15.7 C 9.77 g/m*3 15.7 C 0 km/h
645 24-05-2010 09:03:02 16.3 C 9.71 g/m*3 16.3 C 0 km/h
646 24-05-2010 09:15:02 17 C 9.84 g/m*3 17 C 0 km/h
647 24-05-2010 09:27:02 17.5 C 9.84 g/m*3 17.5 C 0 km/h
648 24-05-2010 09:39:02 18.3 C 9.85 g/m*3 18.3 C 0 km/h
649 24-05-2010 09:51:02 19 C 9.61 g/m*3 19 C 0 km/h
650 24-05-2010 10:03:02 19.7 C 9.85 g/m*3 19.7 C 0 km/h
Sensor: Nr:Datum:Temp:Abs-Feuchte:Windchill:Wind:
Aussen-T/F 651 24-05-2010 10:15:02 20.4 C 9.55 g/m*3 20.4 C 0 km/h
652 24-05-2010 10:27:02 21.3 C 9.69 g/m*3 21.3 C 0 km/h
653 24-05-2010 10:39:02 21.7 C 9.16 g/m*3 21.7 C 0 km/h
654 24-05-2010 10:51:02 22.4 C 9.14 g/m*3 22.4 C 0 km/h
655 24-05-2010 11:03:02 22.9 C 9.2 g/m*3 22.9 C 0 km/h
656 24-05-2010 11:15:01 23.3 C 8.57 g/m*3 23.3 C 0 km/h
657 24-05-2010 11:27:01 23.8 C 8.82 g/m*3 23.8 C 0 km/h
658 24-05-2010 11:39:02 24.2 C 8.58 g/m*3 24.2 C 0 km/h
659 24-05-2010 11:51:02 24.9 C 8.7 g/m*3 24.9 C 0 km/h
660 24-05-2010 12:03:02 25.7 C 8.38 g/m*3 25.7 C 0 km/h
661 24-05-2010 12:15:02 25.4 C 7.3 g/m*3 25.4 C 0 km/h
662 24-05-2010 12:27:02 25.8 C 7.22 g/m*3 25.8 C 0 km/h
663 24-05-2010 12:39:02 26.6 C 6.29 g/m*3 26.6 C 0 km/h
664 24-05-2010 12:51:02 27.4 C 6.84 g/m*3 27.4 C 0 km/h
665 24-05-2010 13:03:02 26.9 C 6.4 g/m*3 26.9 C 0 km/h
666 24-05-2010 13:15:02 27 C 6.43 g/m*3 27 C 0 km/h
667 24-05-2010 13:27:02 27.1 C 6.73 g/m*3 27.1 C 0 km/h
668 24-05-2010 13:39:02 27 C 6.43 g/m*3 27 C 0 km/h
669 24-05-2010 13:51:02 26.5 C 6.51 g/m*3 26.5 C 0 km/h
670 24-05-2010 14:03:02 27 C 6.43 g/m*3 27 C 0 km/h
671 24-05-2010 14:15:02 27.2 C 6.51 g/m*3 27.2 C 0 km/h
672 24-05-2010 14:27:02 28.4 C 6.67 g/m*3 28.4 C 0 km/h
673 24-05-2010 14:39:02 28.8 C 5.97 g/m*3 28.8 C 0 km/h
674 24-05-2010 14:51:01 30 C 6.37 g/m*3 30 C 0 km/h
675 24-05-2010 15:03:02 29.1 C 6.06 g/m*3 29.1 C 0 km/h
Sensor: Nr:Datum:Temp:Abs-Feuchte:Windchill:Wind:
Aussen-T/F 676 24-05-2010 15:15:02 28.1 C 6.29 g/m*3 28.1 C 0 km/h
677 24-05-2010 15:27:02 27.6 C 6.65 g/m*3 27.6 C 0 km/h
678 24-05-2010 15:39:02 28.3 C 6.36 g/m*3 28.3 C 0 km/h
679 24-05-2010 15:51:02 27.8 C 6.72 g/m*3 27.8 C 0 km/h
680 24-05-2010 16:03:02 27.3 C 6.8 g/m*3 27.3 C 0 km/h
681 24-05-2010 16:15:02 27.3 C 6.54 g/m*3 27.3 C 0 km/h
682 24-05-2010 16:27:02 27.3 C 6.54 g/m*3 27.3 C 0 km/h
683 24-05-2010 16:39:01 27.7 C 6.42 g/m*3 27.7 C 0 km/h
684 24-05-2010 16:51:02 28.5 C 6.15 g/m*3 28.5 C 0 km/h
685 24-05-2010 17:03:01 28.5 C 6.15 g/m*3 28.5 C 0 km/h
686 24-05-2010 17:15:02 28.1 C 5.47 g/m*3 28.1 C 0 km/h
687 24-05-2010 17:27:02 27.9 C 5.41 g/m*3 27.9 C 0 km/h
688 24-05-2010 17:39:01 27.9 C 5.68 g/m*3 27.9 C 0 km/h
689 24-05-2010 17:51:03 28.6 C 5.62 g/m*3 28.6 C 0 km/h
690 24-05-2010 18:03:02 27.8 C 5.65 g/m*3 27.8 C 0 km/h
691 24-05-2010 18:15:02 28 C 5.44 g/m*3 28 C 0 km/h
692 24-05-2010 18:27:03 29.2 C 5.81 g/m*3 29.2 C 0 km/h
693 24-05-2010 18:39:02 28.8 C 5.68 g/m*3 28.8 C 0 km/h
694 24-05-2010 18:51:02 29.1 C 5.78 g/m*3 29.1 C 0 km/h
695 24-05-2010 19:03:02 29.2 C 5.81 g/m*3 29.2 C 0 km/h
696 24-05-2010 19:15:02 28.4 C 5.56 g/m*3 28.4 C 0 km/h
697 24-05-2010 19:27:02 28.4 C 5.84 g/m*3 28.4 C 0 km/h
698 24-05-2010 19:39:02 27.9 C 5.68 g/m*3 27.9 C 0 km/h
699 24-05-2010 19:51:02 27.9 C 5.95 g/m*3 27.9 C 0 km/h
700 24-05-2010 20:03:01 27.5 C 6.35 g/m*3 27.5 C 0 km/h
Sensor: Nr:Datum:Temp:Abs-Feuchte:Windchill:Wind:
Aussen-T/F 701 24-05-2010 20:15:02 27.4 C 6.58 g/m*3 27.4 C 0 km/h
702 24-05-2010 20:27:02 27.2 C 6.51 g/m*3 27.2 C 0 km/h
703 24-05-2010 20:39:01 25.8 C 6.5 g/m*3 25.8 C 0 km/h
704 24-05-2010 20:51:02 25.3 C 7.02 g/m*3 25.3 C 0 km/h
705 24-05-2010 21:03:01 24.7 C 7.02 g/m*3 24.7 C 0 km/h
706 24-05-2010 21:15:02 24.1 C 7 g/m*3 24.1 C 0 km/h
707 24-05-2010 21:27:02 23.7 C 7.49 g/m*3 23.7 C 0 km/h
708 24-05-2010 21:39:01 23.3 C 7.32 g/m*3 23.3 C 0 km/h
709 24-05-2010 21:51:02 23.1 C 7.23 g/m*3 23.1 C 0 km/h
710 24-05-2010 22:03:03 22.7 C 7.48 g/m*3 22.7 C 0 km/h
711 24-05-2010 22:15:02 22.3 C 7.7 g/m*3 22.3 C 0 km/h
712 24-05-2010 22:27:02 21.9 C 7.91 g/m*3 21.9 C 0 km/h
713 24-05-2010 22:39:02 21.5 C 8.11 g/m*3 21.5 C 0 km/h
714 24-05-2010 22:52:03 20.9 C 8.38 g/m*3 20.9 C 0 km/h
715 24-05-2010 23:04:03 20.5 C 8.36 g/m*3 20.5 C 0 km/h
716 24-05-2010 23:16:03 20.2 C 8.22 g/m*3 20.2 C 0 km/h
717 24-05-2010 23:28:03 19.7 C 8.32 g/m*3 19.7 C 0 km/h
718 24-05-2010 23:40:03 19.6 C 8.27 g/m*3 19.6 C 0 km/h
719 24-05-2010 23:52:03 19.3 C 8.29 g/m*3 19.3 C 0 km/h
720 25-05-2010 00:04:03 19.1 C 8.36 g/m*3 19.1 C 0 km/h
721 25-05-2010 00:16:04 18.7 C 8.49 g/m*3 18.7 C 0 km/h
722 25-05-2010 00:28:04 18.5 C 8.54 g/m*3 18.5 C 0 km/h
723 25-05-2010 00:40:04 18.2 C 8.55 g/m*3 18.2 C 0 km/h
724 25-05-2010 00:52:04 18 C 8.75 g/m*3 18 C 0 km/h
725 25-05-2010 01:04:04 17.8 C 8.8 g/m*3 17.8 C 0 km/h
Sensor: Nr:Datum:Temp:Abs-Feuchte:Windchill:Wind:
Aussen-T/F 726 25-05-2010 01:16:04 17.5 C 8.8 g/m*3 17.5 C 0 km/h
727 25-05-2010 01:28:04 17.2 C 8.79 g/m*3 17.2 C 0 km/h
728 25-05-2010 01:40:04 16.8 C 9.01 g/m*3 16.8 C 0 km/h
729 25-05-2010 01:52:04 16.6 C 8.9 g/m*3 16.6 C 0 km/h
730 25-05-2010 02:04:04 16.2 C 8.96 g/m*3 16.2 C 0 km/h
731 25-05-2010 02:16:04 16.1 C 8.91 g/m*3 16.1 C 0 km/h
732 25-05-2010 02:28:04 16 C 8.86 g/m*3 16 C 0 km/h
733 25-05-2010 02:40:04 15.9 C 8.94 g/m*3 15.9 C 0 km/h
734 25-05-2010 02:52:04 15.8 C 9.02 g/m*3 15.8 C 0 km/h
735 25-05-2010 03:04:04 15.5 C 8.99 g/m*3 15.5 C 0 km/h
736 25-05-2010 03:16:04 15.2 C 9.09 g/m*3 15.2 C 0 km/h
737 25-05-2010 03:28:04 14.8 C 9.12 g/m*3 14.8 C 0 km/h
738 25-05-2010 03:40:04 14.7 C 9.19 g/m*3 14.7 C 0 km/h
739 25-05-2010 03:52:04 14.6 C 9.13 g/m*3 14.6 C 0 km/h
740 25-05-2010 04:04:04 14.6 C 9.13 g/m*3 14.6 C 0 km/h
741 25-05-2010 04:16:04 14.5 C 9.2 g/m*3 14.5 C 0 km/h
742 25-05-2010 04:28:04 14.1 C 9.1 g/m*3 14.1 C 0 km/h
743 25-05-2010 04:40:05 13.8 C 9.17 g/m*3 13.8 C 0 km/h
744 25-05-2010 04:52:05 13.9 C 9.23 g/m*3 13.9 C 0 km/h
745 25-05-2010 05:04:05 14.1 C 9.22 g/m*3 14.1 C 0 km/h
746 25-05-2010 05:16:05 14 C 9.05 g/m*3 14 C 0 km/h
747 25-05-2010 05:28:05 13.8 C 9.06 g/m*3 13.8 C 0 km/h
748 25-05-2010 05:40:05 13.8 C 9.17 g/m*3 13.8 C 0 km/h
749 25-05-2010 05:52:05 13.8 C 9.06 g/m*3 13.8 C 0 km/h
750 25-05-2010 06:04:05 14 C 9.17 g/m*3 14 C 0 km/h
Sensor: Nr:Datum:Temp:Abs-Feuchte:Windchill:Wind:
Aussen-T/F 751 25-05-2010 06:16:05 14.1 C 9.1 g/m*3 14.1 C 0 km/h
752 25-05-2010 06:28:05 14.5 C 9.33 g/m*3 14.5 C 0 km/h
753 25-05-2010 06:40:05 15 C 9.23 g/m*3 15 C 0 km/h
754 25-05-2010 06:52:05 15.3 C 9.27 g/m*3 15.3 C 0 km/h
755 25-05-2010 07:04:05 15.4 C 9.2 g/m*3 15.4 C 0 km/h
756 25-05-2010 07:16:05 15.5 C 8.99 g/m*3 15.5 C 0 km/h
757 25-05-2010 07:28:06 15.6 C 9.18 g/m*3 15.6 C 0 km/h
758 25-05-2010 07:40:06 15.6 C 9.04 g/m*3 15.6 C 0 km/h
759 25-05-2010 07:52:06 15.9 C 9.21 g/m*3 15.9 C 0 km/h
760 25-05-2010 08:04:06 16.1 C 9.18 g/m*3 16.1 C 0 km/h
761 25-05-2010 08:16:06 16.2 C 9.1 g/m*3 16.2 C 0 km/h
762 25-05-2010 08:28:06 16.5 C 8.99 g/m*3 16.5 C 0 km/h
763 25-05-2010 08:40:03 17.2 C 9.23 g/m*3 17.2 C 0 km/h
764 25-05-2010 08:52:01 17.9 C 9.16 g/m*3 17.9 C 0 km/h
765 25-05-2010 09:04:02 18.1 C 8.81 g/m*3 18.1 C 0 km/h
766 25-05-2010 09:16:01 18.2 C 8.39 g/m*3 18.2 C 0 km/h
767 25-05-2010 09:28:01 18.5 C 8.23 g/m*3 18.5 C 0 km/h
768 25-05-2010 09:40:02 18.9 C 7.45 g/m*3 18.9 C 0 km/h
769 25-05-2010 09:52:02 19.4 C 7.17 g/m*3 19.4 C 0 km/h
770 25-05-2010 10:04:02 19.8 C 7 g/m*3 19.8 C 0 km/h
771 25-05-2010 10:16:01 20.2 C 6.99 g/m*3 20.2 C 0 km/h
772 25-05-2010 10:28:01 20.9 C 6.92 g/m*3 20.9 C 0 km/h
773 25-05-2010 10:40:02 21.2 C 6.67 g/m*3 21.2 C 0 km/h
774 25-05-2010 10:52:02 21 C 6.59 g/m*3 21 C 0 km/h
775 25-05-2010 11:04:02 21.2 C 6.49 g/m*3 21.2 C 0 km/h
Sensor: Nr:Datum:Temp:Abs-Feuchte:Windchill:Wind:
Aussen-T/F 776 25-05-2010 11:16:02 21.2 C 7.04 g/m*3 21.2 C 0 km/h
777 25-05-2010 11:28:02 21.2 C 6.3 g/m*3 21.2 C 0 km/h
778 25-05-2010 11:40:02 21.8 C 6.33 g/m*3 21.8 C 0 km/h
779 25-05-2010 11:52:02 22.8 C 6.1 g/m*3 22.8 C 0 km/h
780 25-05-2010 12:04:01 22.6 C 5.42 g/m*3 22.6 C 0 km/h
781 25-05-2010 12:16:01 23.7 C 5.78 g/m*3 23.7 C 0 km/h
782 25-05-2010 12:28:01 23.5 C 5.71 g/m*3 23.5 C 0 km/h
783 25-05-2010 12:40:02 24 C 5.44 g/m*3 24 C 0 km/h
784 25-05-2010 12:52:02 25.9 C 6.05 g/m*3 25.9 C 0 km/h
785 25-05-2010 13:04:01 25.5 C 5.21 g/m*3 25.5 C 0 km/h
786 25-05-2010 13:16:02 26.2 C 5.42 g/m*3 26.2 C 0 km/h
787 25-05-2010 13:28:02 27.3 C 5.23 g/m*3 27.3 C 0 km/h
788 25-05-2010 13:40:01 27.8 C 5.38 g/m*3 27.8 C 0 km/h
789 25-05-2010 13:52:02 26.8 C 5.35 g/m*3 26.8 C 0 km/h
790 25-05-2010 14:04:01 25.3 C 5.15 g/m*3 25.3 C 0 km/h
791 25-05-2010 14:16:02 26.1 C 5.63 g/m*3 26.1 C 0 km/h
792 25-05-2010 14:28:03 26.5 C 5.76 g/m*3 26.5 C 0 km/h
793 25-05-2010 14:40:01 26.7 C 5.82 g/m*3 26.7 C 0 km/h
794 25-05-2010 14:52:02 27 C 5.4 g/m*3 27 C 0 km/h
795 25-05-2010 15:04:02 27.4 C 6.05 g/m*3 27.4 C 0 km/h
796 25-05-2010 15:16:02 26.3 C 5.69 g/m*3 26.3 C 0 km/h
797 25-05-2010 15:28:02 26.6 C 5.79 g/m*3 26.6 C 0 km/h
798 25-05-2010 15:40:02 26.5 C 5.51 g/m*3 26.5 C 0 km/h
799 25-05-2010 15:52:02 27.7 C 5.62 g/m*3 27.7 C 0 km/h
800 25-05-2010 16:04:02 28.1 C 5.47 g/m*3 28.1 C 0 km/h
Sensor: Nr:Datum:Temp:Abs-Feuchte:Windchill:Wind:
Aussen-T/F 801 25-05-2010 16:16:01 27.6 C 5.85 g/m*3 27.6 C 0 km/h
802 25-05-2010 16:28:01 27.9 C 5.95 g/m*3 27.9 C 0 km/h
803 25-05-2010 16:40:02 27.9 C 6.22 g/m*3 27.9 C 0 km/h
804 25-05-2010 16:52:02 28.1 C 5.74 g/m*3 28.1 C 0 km/h
805 25-05-2010 17:04:02 28.7 C 6.22 g/m*3 28.7 C 0 km/h
806 25-05-2010 17:16:02 27.5 C 5.82 g/m*3 27.5 C 0 km/h
807 25-05-2010 17:28:02 28.6 C 5.9 g/m*3 28.6 C 0 km/h
808 25-05-2010 17:40:02 28.1 C 6.02 g/m*3 28.1 C 0 km/h
809 25-05-2010 17:52:02 27.4 C 6.05 g/m*3 27.4 C 0 km/h
810 25-05-2010 18:04:02 27.2 C 5.99 g/m*3 27.2 C 0 km/h
811 25-05-2010 18:16:02 26 C 5.36 g/m*3 26 C 0 km/h
812 25-05-2010 18:28:02 27 C 5.66 g/m*3 27 C 0 km/h
813 25-05-2010 18:40:02 25.8 C 5.78 g/m*3 25.8 C 0 km/h
814 25-05-2010 18:52:02 25.6 C 5.71 g/m*3 25.6 C 0 km/h
815 25-05-2010 19:04:02 25.2 C 5.82 g/m*3 25.2 C 0 km/h
816 25-05-2010 19:16:02 25.2 C 5.82 g/m*3 25.2 C 0 km/h
817 25-05-2010 19:28:02 24 C 5.87 g/m*3 24 C 0 km/h
818 25-05-2010 19:40:02 24.2 C 5.94 g/m*3 24.2 C 0 km/h
819 25-05-2010 19:52:02 23.7 C 6.2 g/m*3 23.7 C 0 km/h
820 25-05-2010 20:04:02 23.5 C 6.13 g/m*3 23.5 C 0 km/h
821 25-05-2010 20:16:03 23.2 C 6.24 g/m*3 23.2 C 0 km/h
822 25-05-2010 20:28:03 22.8 C 6.3 g/m*3 22.8 C 0 km/h
823 25-05-2010 20:40:02 22.5 C 6.19 g/m*3 22.5 C 0 km/h
824 25-05-2010 20:52:02 22.2 C 6.28 g/m*3 22.2 C 0 km/h
825 25-05-2010 21:04:02 22 C 6.4 g/m*3 22 C 0 km/h
Sensor: Nr:Datum:Temp:Abs-Feuchte:Windchill:Wind:
Aussen-T/F 826 25-05-2010 21:16:02 21.7 C 6.87 g/m*3 21.7 C 0 km/h
827 25-05-2010 21:28:02 21.2 C 7.04 g/m*3 21.2 C 0 km/h
828 25-05-2010 21:40:02 20.7 C 7.2 g/m*3 20.7 C 0 km/h
829 25-05-2010 21:52:02 20.3 C 6.86 g/m*3 20.3 C 0 km/h
830 25-05-2010 22:04:02 19.7 C 6.79 g/m*3 19.7 C 0 km/h
831 25-05-2010 22:16:02 19.5 C 6.88 g/m*3 19.5 C 0 km/h
832 25-05-2010 22:28:02 19.3 C 6.97 g/m*3 19.3 C 0 km/h
833 25-05-2010 22:41:48 19.4 C 7.01 g/m*3 19.4 C 0 km/h
834 25-05-2010 22:53:48 19.3 C 6.8 g/m*3 19.3 C 0 km/h
835 25-05-2010 23:05:48 19.1 C 6.56 g/m*3 19.1 C 0 km/h
836 25-05-2010 23:17:48 18.8 C 6.76 g/m*3 18.8 C 0 km/h
837 25-05-2010 23:29:48 18.8 C 7.09 g/m*3 18.8 C 0 km/h
838 25-05-2010 23:41:48 18.7 C 6.88 g/m*3 18.7 C 0 km/h
839 25-05-2010 23:53:48 18.8 C 6.93 g/m*3 18.8 C 0 km/h

Legende:
   Min
   Max


Maximal/Minimal-Werte vom 19.05.2010 - 25.05.2010

Sensor Min Max Avg
Temp
(Aussen-T/F)
7.6 °C
21-05-2010  04:49:04
30.2 °C
23-05-2010  17:02:01
17.15 °C
Abs-Feuchte
(Aussen-T/F)
4.39 g/m*3
21-05-2010  13:49:02
9.85 g/m*3
24-05-2010  09:39:02
7.03 g/m*3
Windchill
(Aussen-T/F)
7.6 C
21-05-2010  04:49:04
30.2 C
23-05-2010  17:02:01
17.13 C

Die Daten stammen von einer Davis Vantage Pro 2 Wetter-Station und werden unter Linux mit der Software wview2wettercgi und aufbereitet. Alle Angaben erfolgen ohne Gewähr für ihre Vollständigkeit oder Richtigkeit.
Kontakt: Rainer Krienke krienke@uni-koblenz.de . Meine Webseiten an der Uni Koblenz oder privat.
Version: $Revision: 0.78 $